Farmington, IL

7:10 PM CST on February 05, 2016 (GMT -0600)
Kepple Acres Lodge | | Change Station
CLOSE
Current Station
Personal Weather Station
Location: Kepple Acres Farms near Fairview, IL
Elevation: 741 ft
Nearby Weather Stations
Active Advisory: Flood Warning

Elev 741 ft 40.68 °N, 90.10 °W | Updated 15 seconds ago

Partly Cloudy
Partly Cloudy
26.0 °F
Feels Like 26 °F
N
3.0
Wind Variable Wind from East
Gusts 7.0 mph

Today
High -- | Low -- °F
--% Chance of Precip.
Yesterday
High -- | Low -- °F
Precip. -- in
Pressure 30.41 in
Visibility 10.0 miles
Clouds Clear
Windchill 26 °F
Dew Point 26 °F
Humidity 100%
Rainfall 0.00 in
Snow Depth Not available.
7:06 AM 5:22 PM
Waning Crescent, 8% visible
METAR KPIA 060054Z 08003KT 10SM CLR M03/M07 A3038 RMK AO2 SLP297 T10281072 $
Pressure 30.41 in
Visibility 10.0 miles
Clouds Clear
Windchill 26 °F
Dew Point 26 °F
Humidity 100%
Rainfall 0.00 in
Snow Depth Not available.
7:06 AM 5:22 PM
Waning Crescent, 8% visible
METAR KPIA 060054Z 08003KT 10SM CLR M03/M07 A3038 RMK AO2 SLP297 T10281072 $

10-Day Weather Forecast

Almanac

Astronomy

Feb. 05, 2016 Rise Set
Actual Time
Civil Twilight
Nautical Twilight
Astronomical Twilight
Moon
Length of Visible Light
Length of Day
Tomorrow will be .
, % of the Moon is Illuminated

Today's Extremes

State Highs State Lows

Community

WunderPhotos

Upload Photos

1,890,902 photos uploaded!

WunderBlog® & News

Nearby

Air Quality

  Air Quality AQ Index Pollutant
Not available.

Snow Depth

Station Depth Elevation

Earthquake Activity

City Distance Mag. Time & Date
Minimum magnitude displayed is 2.5.

Coastal Water Temperatures

Place Temperature

Stations

Nearby Weather Stations

Station Location Temp. Windchill Dew Point Humidity Wind Precip. Elev Updated Type
                   

Watches & Warnings

Flood Warning
Issued: 10:06 AM CST Feb. 5, 2016 – National Weather Service

The Flood Warning continues for
the Illinois River at Havana.
* Until late Monday night.
* At 10 am Friday the stage was 13.1 feet.
* Flood stage is 14 feet.
* Forecast... the river is expected to rise to near flood stage Monday
morning.
* Impact... at 14 feet... minor flooding begins to agricultural areas
not protected by levees.


                  Fld observed forecast 6 am
location stg stg day time Sat sun Mon

Illinois River
Havana 14 13.1 Fri 10 am 13.4 13.7 14.0


Lat... Lon 4053 8988 4047 8980 4034 9002 4012 9017
      4018 9023 4039 9010